Terminal Aerodrome Forecast
Issued by NWS

Current Version | Previous Version | Graphics & Text | Print | Product List | Glossary On
Versions: 1 2 3 4 5 6 7 8 9 10 11 12 13 14 15 16 17 18
000
FTUS41 KPBZ 161739
TAFHLG
TAF
KHLG 161739Z 1618/1718 26015G25KT P6SM VCSH OVC035
     FM170000 25010KT P6SM VCSH OVC030
     FM170500 26011KT P6SM VCSH OVC015
     FM171000 26010KT P6SM VCSH OVC020=

USA.gov is the U.S. government's official web portal to all federal, state and local government web resources and services.